sensor_id;sensor_type;location;lat;lon;timestamp;temperature;humidity
33837;DHT22;20140;49.356;8.812;2023-02-28T00:02:14;0.00;99.90
33837;DHT22;20140;49.356;8.812;2023-02-28T00:04:42;0.00;99.90
33837;DHT22;20140;49.356;8.812;2023-02-28T00:07:08;-0.10;99.90
33837;DHT22;20140;49.356;8.812;2023-02-28T00:09:33;-0.10;99.90
33837;DHT22;20140;49.356;8.812;2023-02-28T00:11:59;-0.10;99.90
33837;DHT22;20140;49.356;8.812;2023-02-28T00:14:25;-0.10;99.90
33837;DHT22;20140;49.356;8.812;2023-02-28T00:16:50;-0.10;99.90
33837;DHT22;20140;49.356;8.812;2023-02-28T00:19:17;-0.20;99.90
33837;DHT22;20140;49.356;8.812;2023-02-28T00:21:43;-0.20;99.90
33837;DHT22;20140;49.356;8.812;2023-02-28T00:24:08;-0.20;99.90
33837;DHT22;20140;49.356;8.812;2023-02-28T00:26:34;-0.30;99.90
33837;DHT22;20140;49.356;8.812;2023-02-28T00:28:59;-0.30;99.90
33837;DHT22;20140;49.356;8.812;2023-02-28T00:31:25;-0.30;99.90
33837;DHT22;20140;49.356;8.812;2023-02-28T00:33:50;-0.40;99.90
33837;DHT22;20140;49.356;8.812;2023-02-28T00:36:17;-0.40;99.90
33837;DHT22;20140;49.356;8.812;2023-02-28T00:38:42;-0.40;99.90
33837;DHT22;20140;49.356;8.812;2023-02-28T00:41:08;-0.40;99.90
33837;DHT22;20140;49.356;8.812;2023-02-28T00:43:35;-0.40;99.90
33837;DHT22;20140;49.356;8.812;2023-02-28T00:46:02;-0.40;99.90
33837;DHT22;20140;49.356;8.812;2023-02-28T00:48:27;-0.50;99.90
33837;DHT22;20140;49.356;8.812;2023-02-28T00:50:53;-0.60;99.90
33837;DHT22;20140;49.356;8.812;2023-02-28T00:53:19;-0.60;99.90
33837;DHT22;20140;49.356;8.812;2023-02-28T00:55:45;-0.60;99.90
33837;DHT22;20140;49.356;8.812;2023-02-28T00:58:10;-0.60;99.90
33837;DHT22;20140;49.356;8.812;2023-02-28T01:00:36;-0.50;99.90
33837;DHT22;20140;49.356;8.812;2023-02-28T01:03:02;-0.60;99.90
33837;DHT22;20140;49.356;8.812;2023-02-28T01:05:27;-0.60;99.90
33837;DHT22;20140;49.356;8.812;2023-02-28T01:07:53;-0.60;99.90
33837;DHT22;20140;49.356;8.812;2023-02-28T01:10:18;-0.60;99.90
33837;DHT22;20140;49.356;8.812;2023-02-28T01:12:44;-0.60;99.90
33837;DHT22;20140;49.356;8.812;2023-02-28T01:15:10;-0.60;99.90
33837;DHT22;20140;49.356;8.812;2023-02-28T01:17:36;-0.60;99.90
33837;DHT22;20140;49.356;8.812;2023-02-28T01:20:03;-0.60;99.90
33837;DHT22;20140;49.356;8.812;2023-02-28T01:22:28;-0.60;99.90
33837;DHT22;20140;49.356;8.812;2023-02-28T01:24:54;-0.70;99.90
33837;DHT22;20140;49.356;8.812;2023-02-28T01:27:19;-0.60;99.90
33837;DHT22;20140;49.356;8.812;2023-02-28T01:29:45;-0.60;99.90
33837;DHT22;20140;49.356;8.812;2023-02-28T01:32:10;-0.70;99.90
33837;DHT22;20140;49.356;8.812;2023-02-28T01:34:36;-0.70;99.90
33837;DHT22;20140;49.356;8.812;2023-02-28T01:37:02;-0.70;99.90
33837;DHT22;20140;49.356;8.812;2023-02-28T01:39:28;-0.70;99.90
33837;DHT22;20140;49.356;8.812;2023-02-28T01:41:54;-0.70;99.90
33837;DHT22;20140;49.356;8.812;2023-02-28T01:44:58;-0.70;99.90
33837;DHT22;20140;49.356;8.812;2023-02-28T01:47:29;-0.70;99.90
33837;DHT22;20140;49.356;8.812;2023-02-28T01:49:55;-0.70;99.90
33837;DHT22;20140;49.356;8.812;2023-02-28T01:52:22;-0.70;99.90
33837;DHT22;20140;49.356;8.812;2023-02-28T01:54:53;-0.70;99.90
33837;DHT22;20140;49.356;8.812;2023-02-28T01:57:23;-0.70;99.90
33837;DHT22;20140;49.356;8.812;2023-02-28T01:59:55;-0.80;99.90
33837;DHT22;20140;49.356;8.812;2023-02-28T02:02:24;-0.80;99.90
33837;DHT22;20140;49.356;8.812;2023-02-28T02:04:55;-0.80;99.90
33837;DHT22;20140;49.356;8.812;2023-02-28T02:07:23;-0.80;99.90
33837;DHT22;20140;49.356;8.812;2023-02-28T02:09:49;-0.80;99.90
33837;DHT22;20140;49.356;8.812;2023-02-28T02:15:01;-0.90;99.90
33837;DHT22;20140;49.356;8.812;2023-02-28T02:17:38;-0.80;99.90
33837;DHT22;20140;49.356;8.812;2023-02-28T02:20:16;-0.80;99.90
33837;DHT22;20140;49.356;8.812;2023-02-28T02:23:17;-0.80;99.90
33837;DHT22;20140;49.356;8.812;2023-02-28T02:25:56;-0.80;99.90
33837;DHT22;20140;49.356;8.812;2023-02-28T02:29:02;-0.80;99.90
33837;DHT22;20140;49.356;8.812;2023-02-28T02:32:02;-0.80;99.90
33837;DHT22;20140;49.356;8.812;2023-02-28T02:34:55;-0.80;99.90
33837;DHT22;20140;49.356;8.812;2023-02-28T02:40:25;-0.80;99.90
33837;DHT22;20140;49.356;8.812;2023-02-28T02:43:02;-0.80;99.90
33837;DHT22;20140;49.356;8.812;2023-02-28T02:45:56;-0.80;99.90
33837;DHT22;20140;49.356;8.812;2023-02-28T02:48:27;-0.90;99.90
33837;DHT22;20140;49.356;8.812;2023-02-28T02:50:57;-0.90;99.90
33837;DHT22;20140;49.356;8.812;2023-02-28T02:53:32;-0.90;99.90
33837;DHT22;20140;49.356;8.812;2023-02-28T02:56:00;-0.80;99.90
33837;DHT22;20140;49.356;8.812;2023-02-28T02:58:30;-0.90;99.90
33837;DHT22;20140;49.356;8.812;2023-02-28T03:00:59;-0.90;99.90
33837;DHT22;20140;49.356;8.812;2023-02-28T03:03:27;-0.90;99.90
33837;DHT22;20140;49.356;8.812;2023-02-28T03:05:57;-0.90;99.90
33837;DHT22;20140;49.356;8.812;2023-02-28T03:08:25;-0.90;99.90
33837;DHT22;20140;49.356;8.812;2023-02-28T03:10:55;-0.90;99.90
33837;DHT22;20140;49.356;8.812;2023-02-28T03:13:37;-0.90;99.90
33837;DHT22;20140;49.356;8.812;2023-02-28T03:22:23;-1.00;99.90
33837;DHT22;20140;49.356;8.812;2023-02-28T03:30:39;-1.20;99.90
33837;DHT22;20140;49.356;8.812;2023-02-28T03:33:19;-1.10;99.90
33837;DHT22;20140;49.356;8.812;2023-02-28T03:35:58;-1.10;99.90
33837;DHT22;20140;49.356;8.812;2023-02-28T03:38:33;-1.10;99.90
33837;DHT22;20140;49.356;8.812;2023-02-28T03:41:16;-1.20;99.90
33837;DHT22;20140;49.356;8.812;2023-02-28T03:43:49;-1.20;99.90
33837;DHT22;20140;49.356;8.812;2023-02-28T03:46:20;-1.20;99.90
33837;DHT22;20140;49.356;8.812;2023-02-28T03:48:58;-1.20;99.90
33837;DHT22;20140;49.356;8.812;2023-02-28T03:51:27;-1.20;99.90
33837;DHT22;20140;49.356;8.812;2023-02-28T03:53:58;-1.20;99.90
33837;DHT22;20140;49.356;8.812;2023-02-28T03:56:40;-1.20;99.90
33837;DHT22;20140;49.356;8.812;2023-02-28T03:59:20;-1.20;99.90
33837;DHT22;20140;49.356;8.812;2023-02-28T04:01:48;-1.20;99.90
33837;DHT22;20140;49.356;8.812;2023-02-28T04:04:15;-1.20;99.90
33837;DHT22;20140;49.356;8.812;2023-02-28T04:06:42;-1.20;99.90
33837;DHT22;20140;49.356;8.812;2023-02-28T04:09:12;-1.30;99.90
33837;DHT22;20140;49.356;8.812;2023-02-28T04:11:45;-1.20;99.90
33837;DHT22;20140;49.356;8.812;2023-02-28T04:14:12;-1.20;99.90
33837;DHT22;20140;49.356;8.812;2023-02-28T04:16:40;-1.30;99.90
33837;DHT22;20140;49.356;8.812;2023-02-28T04:19:07;-1.20;99.90
33837;DHT22;20140;49.356;8.812;2023-02-28T04:21:36;-1.30;99.90
33837;DHT22;20140;49.356;8.812;2023-02-28T04:24:04;-1.20;99.90
33837;DHT22;20140;49.356;8.812;2023-02-28T04:26:35;-1.30;99.90
33837;DHT22;20140;49.356;8.812;2023-02-28T04:29:03;-1.30;99.90
33837;DHT22;20140;49.356;8.812;2023-02-28T04:31:28;-1.30;99.90
33837;DHT22;20140;49.356;8.812;2023-02-28T04:33:54;-1.30;99.90
33837;DHT22;20140;49.356;8.812;2023-02-28T04:36:20;-1.20;99.90
33837;DHT22;20140;49.356;8.812;2023-02-28T04:38:46;-1.20;99.90
33837;DHT22;20140;49.356;8.812;2023-02-28T04:41:12;-1.20;99.90
33837;DHT22;20140;49.356;8.812;2023-02-28T04:43:38;-1.20;99.90
33837;DHT22;20140;49.356;8.812;2023-02-28T04:46:05;-1.20;99.90
33837;DHT22;20140;49.356;8.812;2023-02-28T04:48:33;-1.20;99.90
33837;DHT22;20140;49.356;8.812;2023-02-28T04:51:06;-1.20;99.90
33837;DHT22;20140;49.356;8.812;2023-02-28T04:53:32;-1.20;99.90
33837;DHT22;20140;49.356;8.812;2023-02-28T04:55:58;-1.00;99.90
33837;DHT22;20140;49.356;8.812;2023-02-28T04:58:24;-1.00;99.90
33837;DHT22;20140;49.356;8.812;2023-02-28T05:00:51;-0.90;99.90
33837;DHT22;20140;49.356;8.812;2023-02-28T05:03:17;-1.00;99.90
33837;DHT22;20140;49.356;8.812;2023-02-28T05:05:42;-1.00;99.90
33837;DHT22;20140;49.356;8.812;2023-02-28T05:08:08;-1.00;99.90
33837;DHT22;20140;49.356;8.812;2023-02-28T05:10:35;-0.90;99.90
33837;DHT22;20140;49.356;8.812;2023-02-28T05:13:01;-0.90;99.90
33837;DHT22;20140;49.356;8.812;2023-02-28T05:15:26;-0.90;99.90
33837;DHT22;20140;49.356;8.812;2023-02-28T05:17:52;-0.90;99.90
33837;DHT22;20140;49.356;8.812;2023-02-28T05:20:17;-0.90;99.90
33837;DHT22;20140;49.356;8.812;2023-02-28T05:22:43;-0.90;99.90
33837;DHT22;20140;49.356;8.812;2023-02-28T05:25:19;-0.90;99.90
33837;DHT22;20140;49.356;8.812;2023-02-28T05:27:45;-0.80;99.90
33837;DHT22;20140;49.356;8.812;2023-02-28T05:30:11;-0.80;99.90
33837;DHT22;20140;49.356;8.812;2023-02-28T05:32:38;-0.80;99.90
33837;DHT22;20140;49.356;8.812;2023-02-28T05:35:04;-0.80;99.90
33837;DHT22;20140;49.356;8.812;2023-02-28T05:37:30;-0.80;99.90
33837;DHT22;20140;49.356;8.812;2023-02-28T05:39:55;-0.80;99.90
33837;DHT22;20140;49.356;8.812;2023-02-28T05:42:21;-0.80;99.90
33837;DHT22;20140;49.356;8.812;2023-02-28T05:44:46;-0.80;99.90
33837;DHT22;20140;49.356;8.812;2023-02-28T05:47:12;-0.80;99.90
33837;DHT22;20140;49.356;8.812;2023-02-28T05:49:41;-0.70;99.90
33837;DHT22;20140;49.356;8.812;2023-02-28T05:52:06;-0.80;99.90
33837;DHT22;20140;49.356;8.812;2023-02-28T05:54:32;-0.80;99.90
33837;DHT22;20140;49.356;8.812;2023-02-28T05:56:58;-0.80;99.90
33837;DHT22;20140;49.356;8.812;2023-02-28T05:59:23;-0.80;99.90
33837;DHT22;20140;49.356;8.812;2023-02-28T06:01:49;-0.90;99.90
33837;DHT22;20140;49.356;8.812;2023-02-28T06:04:17;-0.90;99.90
33837;DHT22;20140;49.356;8.812;2023-02-28T06:06:45;-0.90;99.90
33837;DHT22;20140;49.356;8.812;2023-02-28T06:09:11;-0.90;99.90
33837;DHT22;20140;49.356;8.812;2023-02-28T06:11:37;-1.00;99.90
33837;DHT22;20140;49.356;8.812;2023-02-28T06:14:03;-0.90;99.90
33837;DHT22;20140;49.356;8.812;2023-02-28T06:16:29;-0.90;99.90
33837;DHT22;20140;49.356;8.812;2023-02-28T06:18:57;-0.90;99.90
33837;DHT22;20140;49.356;8.812;2023-02-28T06:21:23;-1.00;99.90
33837;DHT22;20140;49.356;8.812;2023-02-28T06:23:50;-0.90;99.90
33837;DHT22;20140;49.356;8.812;2023-02-28T06:26:15;-0.90;99.90
33837;DHT22;20140;49.356;8.812;2023-02-28T06:28:41;-0.90;99.90
33837;DHT22;20140;49.356;8.812;2023-02-28T06:31:11;-0.90;99.90
33837;DHT22;20140;49.356;8.812;2023-02-28T06:33:37;-0.90;99.90
33837;DHT22;20140;49.356;8.812;2023-02-28T06:36:04;-0.90;99.90
33837;DHT22;20140;49.356;8.812;2023-02-28T06:38:30;-1.00;99.90
33837;DHT22;20140;49.356;8.812;2023-02-28T06:40:58;-0.90;99.90
33837;DHT22;20140;49.356;8.812;2023-02-28T06:43:25;-0.90;99.90
33837;DHT22;20140;49.356;8.812;2023-02-28T06:45:55;-0.80;99.90
33837;DHT22;20140;49.356;8.812;2023-02-28T06:48:21;-0.80;99.90
33837;DHT22;20140;49.356;8.812;2023-02-28T06:50:46;-0.80;99.90
33837;DHT22;20140;49.356;8.812;2023-02-28T06:53:12;-0.80;99.90
33837;DHT22;20140;49.356;8.812;2023-02-28T06:55:38;-0.80;99.90
33837;DHT22;20140;49.356;8.812;2023-02-28T06:58:04;-0.80;99.90
33837;DHT22;20140;49.356;8.812;2023-02-28T07:00:40;-0.70;99.90
33837;DHT22;20140;49.356;8.812;2023-02-28T07:03:06;-0.60;99.90
33837;DHT22;20140;49.356;8.812;2023-02-28T07:05:34;-0.60;99.90
33837;DHT22;20140;49.356;8.812;2023-02-28T07:07:59;-0.50;99.90
33837;DHT22;20140;49.356;8.812;2023-02-28T07:10:25;-0.50;99.90
33837;DHT22;20140;49.356;8.812;2023-02-28T07:12:50;-0.50;99.90
33837;DHT22;20140;49.356;8.812;2023-02-28T07:15:16;-0.40;99.90
33837;DHT22;20140;49.356;8.812;2023-02-28T07:17:42;-0.30;99.90
33837;DHT22;20140;49.356;8.812;2023-02-28T07:20:08;-0.30;99.90
33837;DHT22;20140;49.356;8.812;2023-02-28T07:22:33;-0.20;99.90
33837;DHT22;20140;49.356;8.812;2023-02-28T07:24:59;-0.10;99.90
33837;DHT22;20140;49.356;8.812;2023-02-28T07:27:25;-0.20;99.90
33837;DHT22;20140;49.356;8.812;2023-02-28T07:29:51;-0.10;99.90
33837;DHT22;20140;49.356;8.812;2023-02-28T07:32:17;0.00;99.90
33837;DHT22;20140;49.356;8.812;2023-02-28T07:34:44;0.10;99.90
33837;DHT22;20140;49.356;8.812;2023-02-28T07:37:09;0.10;99.90
33837;DHT22;20140;49.356;8.812;2023-02-28T07:39:35;0.10;99.90
33837;DHT22;20140;49.356;8.812;2023-02-28T07:42:04;0.20;99.90
33837;DHT22;20140;49.356;8.812;2023-02-28T07:44:30;0.20;99.90
33837;DHT22;20140;49.356;8.812;2023-02-28T07:46:55;0.20;99.90
33837;DHT22;20140;49.356;8.812;2023-02-28T07:49:21;0.10;99.90
33837;DHT22;20140;49.356;8.812;2023-02-28T07:51:46;0.20;99.90
33837;DHT22;20140;49.356;8.812;2023-02-28T07:54:12;0.20;99.90
33837;DHT22;20140;49.356;8.812;2023-02-28T07:56:37;0.30;99.90
33837;DHT22;20140;49.356;8.812;2023-02-28T07:59:03;0.30;99.90
33837;DHT22;20140;49.356;8.812;2023-02-28T08:01:28;0.30;99.90
33837;DHT22;20140;49.356;8.812;2023-02-28T08:03:54;0.30;99.90
33837;DHT22;20140;49.356;8.812;2023-02-28T08:06:23;0.30;99.90
33837;DHT22;20140;49.356;8.812;2023-02-28T08:08:50;0.40;99.90
33837;DHT22;20140;49.356;8.812;2023-02-28T08:11:16;0.40;99.90
33837;DHT22;20140;49.356;8.812;2023-02-28T08:13:43;0.50;99.90
33837;DHT22;20140;49.356;8.812;2023-02-28T08:16:09;0.70;99.90
33837;DHT22;20140;49.356;8.812;2023-02-28T08:18:35;1.50;99.90
33837;DHT22;20140;49.356;8.812;2023-02-28T08:21:06;1.80;99.90
33837;DHT22;20140;49.356;8.812;2023-02-28T08:23:32;1.30;99.90
33837;DHT22;20140;49.356;8.812;2023-02-28T08:25:58;1.00;99.90
33837;DHT22;20140;49.356;8.812;2023-02-28T08:28:24;0.90;99.90
33837;DHT22;20140;49.356;8.812;2023-02-28T08:30:50;0.80;99.90
33837;DHT22;20140;49.356;8.812;2023-02-28T08:33:15;0.80;99.90
33837;DHT22;20140;49.356;8.812;2023-02-28T08:35:41;0.80;99.90
33837;DHT22;20140;49.356;8.812;2023-02-28T08:38:06;0.90;99.90
33837;DHT22;20140;49.356;8.812;2023-02-28T08:40:32;0.80;99.90
33837;DHT22;20140;49.356;8.812;2023-02-28T08:42:57;0.90;99.90
33837;DHT22;20140;49.356;8.812;2023-02-28T08:45:23;0.90;99.90
33837;DHT22;20140;49.356;8.812;2023-02-28T08:47:49;1.00;99.90
33837;DHT22;20140;49.356;8.812;2023-02-28T08:50:17;1.00;99.90
33837;DHT22;20140;49.356;8.812;2023-02-28T08:52:43;1.10;99.90
33837;DHT22;20140;49.356;8.812;2023-02-28T08:55:10;1.10;99.90
33837;DHT22;20140;49.356;8.812;2023-02-28T08:57:35;1.20;99.90
33837;DHT22;20140;49.356;8.812;2023-02-28T09:00:02;1.10;99.90
33837;DHT22;20140;49.356;8.812;2023-02-28T09:02:30;1.20;99.90
33837;DHT22;20140;49.356;8.812;2023-02-28T09:04:56;1.30;99.90
33837;DHT22;20140;49.356;8.812;2023-02-28T09:07:22;1.40;99.90
33837;DHT22;20140;49.356;8.812;2023-02-28T09:09:47;1.40;99.90
33837;DHT22;20140;49.356;8.812;2023-02-28T09:12:20;1.50;99.90
33837;DHT22;20140;49.356;8.812;2023-02-28T09:14:46;1.60;99.90
33837;DHT22;20140;49.356;8.812;2023-02-28T09:17:12;1.70;99.90
33837;DHT22;20140;49.356;8.812;2023-02-28T09:19:37;1.70;99.90
33837;DHT22;20140;49.356;8.812;2023-02-28T09:22:02;1.80;99.90
33837;DHT22;20140;49.356;8.812;2023-02-28T09:24:28;1.90;99.90
33837;DHT22;20140;49.356;8.812;2023-02-28T09:26:54;1.90;99.90
33837;DHT22;20140;49.356;8.812;2023-02-28T09:29:19;1.90;99.90
33837;DHT22;20140;49.356;8.812;2023-02-28T09:31:45;1.90;99.90
33837;DHT22;20140;49.356;8.812;2023-02-28T09:34:10;1.90;99.90
33837;DHT22;20140;49.356;8.812;2023-02-28T09:36:36;1.90;99.90
33837;DHT22;20140;49.356;8.812;2023-02-28T09:39:04;2.00;99.90
33837;DHT22;20140;49.356;8.812;2023-02-28T09:41:41;2.00;99.90
33837;DHT22;20140;49.356;8.812;2023-02-28T09:44:29;2.00;99.90
33837;DHT22;20140;49.356;8.812;2023-02-28T09:47:05;2.10;99.90
33837;DHT22;20140;49.356;8.812;2023-02-28T09:49:45;2.20;99.90
33837;DHT22;20140;49.356;8.812;2023-02-28T09:52:30;2.20;99.90
33837;DHT22;20140;49.356;8.812;2023-02-28T09:55:19;2.40;99.90
33837;DHT22;20140;49.356;8.812;2023-02-28T09:57:45;2.40;99.90
33837;DHT22;20140;49.356;8.812;2023-02-28T10:00:18;2.40;99.90
33837;DHT22;20140;49.356;8.812;2023-02-28T10:05:28;2.70;99.90
33837;DHT22;20140;49.356;8.812;2023-02-28T10:10:43;2.70;99.90
33837;DHT22;20140;49.356;8.812;2023-02-28T10:13:19;2.90;99.90
33837;DHT22;20140;49.356;8.812;2023-02-28T10:15:48;3.00;99.90
33837;DHT22;20140;49.356;8.812;2023-02-28T10:18:21;3.20;99.90
33837;DHT22;20140;49.356;8.812;2023-02-28T10:20:49;3.30;99.90
33837;DHT22;20140;49.356;8.812;2023-02-28T10:23:23;3.30;99.90
33837;DHT22;20140;49.356;8.812;2023-02-28T10:25:55;3.50;99.90
33837;DHT22;20140;49.356;8.812;2023-02-28T10:28:24;3.50;99.90
33837;DHT22;20140;49.356;8.812;2023-02-28T10:30:52;3.50;99.90
33837;DHT22;20140;49.356;8.812;2023-02-28T10:33:33;3.60;99.90
33837;DHT22;20140;49.356;8.812;2023-02-28T10:36:02;3.70;99.90
33837;DHT22;20140;49.356;8.812;2023-02-28T10:38:37;3.80;99.90
33837;DHT22;20140;49.356;8.812;2023-02-28T10:41:05;3.70;99.90
33837;DHT22;20140;49.356;8.812;2023-02-28T10:43:31;3.70;99.90
33837;DHT22;20140;49.356;8.812;2023-02-28T10:46:01;3.90;99.90
33837;DHT22;20140;49.356;8.812;2023-02-28T10:48:30;4.00;99.90
33837;DHT22;20140;49.356;8.812;2023-02-28T10:50:58;3.80;99.90
33837;DHT22;20140;49.356;8.812;2023-02-28T10:56:00;3.90;99.90
33837;DHT22;20140;49.356;8.812;2023-02-28T11:01:22;4.20;99.90
33837;DHT22;20140;49.356;8.812;2023-02-28T11:03:49;4.40;99.90
33837;DHT22;20140;49.356;8.812;2023-02-28T11:06:22;4.40;99.90
33837;DHT22;20140;49.356;8.812;2023-02-28T11:08:53;4.30;99.90
33837;DHT22;20140;49.356;8.812;2023-02-28T11:11:21;4.50;99.90
33837;DHT22;20140;49.356;8.812;2023-02-28T11:13:50;4.60;99.90
33837;DHT22;20140;49.356;8.812;2023-02-28T11:16:16;4.50;99.90
33837;DHT22;20140;49.356;8.812;2023-02-28T11:19:03;4.40;99.90
33837;DHT22;20140;49.356;8.812;2023-02-28T11:21:32;4.60;99.90
33837;DHT22;20140;49.356;8.812;2023-02-28T11:24:28;4.90;99.90
33837;DHT22;20140;49.356;8.812;2023-02-28T11:26:55;5.10;99.90
33837;DHT22;20140;49.356;8.812;2023-02-28T11:29:42;5.30;99.90
33837;DHT22;20140;49.356;8.812;2023-02-28T11:32:18;5.30;99.90
33837;DHT22;20140;49.356;8.812;2023-02-28T11:34:44;5.50;99.90
33837;DHT22;20140;49.356;8.812;2023-02-28T11:37:17;5.50;99.90
33837;DHT22;20140;49.356;8.812;2023-02-28T11:39:44;5.70;99.90
33837;DHT22;20140;49.356;8.812;2023-02-28T11:45:07;5.30;99.90
33837;DHT22;20140;49.356;8.812;2023-02-28T11:48:23;5.10;99.90
33837;DHT22;20140;49.356;8.812;2023-02-28T11:53:29;5.50;99.90
33837;DHT22;20140;49.356;8.812;2023-02-28T11:56:08;5.60;99.90
33837;DHT22;20140;49.356;8.812;2023-02-28T11:59:02;5.80;99.90
33837;DHT22;20140;49.356;8.812;2023-02-28T12:15:44;6.20;99.40
33837;DHT22;20140;49.356;8.812;2023-02-28T12:20:53;6.30;98.60
33837;DHT22;20140;49.356;8.812;2023-02-28T12:26:16;6.40;98.80
33837;DHT22;20140;49.356;8.812;2023-02-28T12:28:54;6.40;98.70
33837;DHT22;20140;49.356;8.812;2023-02-28T12:31:33;6.80;98.20
33837;DHT22;20140;49.356;8.812;2023-02-28T12:34:05;7.20;98.00
33837;DHT22;20140;49.356;8.812;2023-02-28T12:36:34;7.50;96.00
33837;DHT22;20140;49.356;8.812;2023-02-28T12:39:15;7.80;95.70
33837;DHT22;20140;49.356;8.812;2023-02-28T12:41:59;8.10;95.00
33837;DHT22;20140;49.356;8.812;2023-02-28T12:44:47;7.80;94.20
33837;DHT22;20140;49.356;8.812;2023-02-28T12:47:19;8.50;94.10
33837;DHT22;20140;49.356;8.812;2023-02-28T12:50:02;8.20;93.90
33837;DHT22;20140;49.356;8.812;2023-02-28T12:52:55;8.00;94.50
33837;DHT22;20140;49.356;8.812;2023-02-28T12:58:08;7.40;94.60
33837;DHT22;20140;49.356;8.812;2023-02-28T13:01:29;7.40;94.80
33837;DHT22;20140;49.356;8.812;2023-02-28T13:09:04;7.50;95.70
33837;DHT22;20140;49.356;8.812;2023-02-28T13:11:39;7.40;94.30
33837;DHT22;20140;49.356;8.812;2023-02-28T13:14:16;7.60;94.20
33837;DHT22;20140;49.356;8.812;2023-02-28T13:29:50;7.60;93.70
33837;DHT22;20140;49.356;8.812;2023-02-28T13:39:56;8.30;93.20
33837;DHT22;20140;49.356;8.812;2023-02-28T13:47:42;8.70;90.50
33837;DHT22;20140;49.356;8.812;2023-02-28T13:50:28;9.00;90.80
33837;DHT22;20140;49.356;8.812;2023-02-28T14:04:38;11.00;84.30
33837;DHT22;20140;49.356;8.812;2023-02-28T14:07:09;11.10;82.50
33837;DHT22;20140;49.356;8.812;2023-02-28T14:09:46;9.80;84.60
33837;DHT22;20140;49.356;8.812;2023-02-28T14:12:52;9.90;86.50
33837;DHT22;20140;49.356;8.812;2023-02-28T14:18:02;9.30;86.70
33837;DHT22;20140;49.356;8.812;2023-02-28T14:20:31;9.40;86.70
33837;DHT22;20140;49.356;8.812;2023-02-28T14:31:38;7.80;90.80
33837;DHT22;20140;49.356;8.812;2023-02-28T14:34:26;7.50;90.70
33837;DHT22;20140;49.356;8.812;2023-02-28T14:36:58;7.90;91.90
33837;DHT22;20140;49.356;8.812;2023-02-28T14:39:26;8.70;91.20
33837;DHT22;20140;49.356;8.812;2023-02-28T14:41:53;9.20;90.00
33837;DHT22;20140;49.356;8.812;2023-02-28T14:44:21;9.50;89.60
33837;DHT22;20140;49.356;8.812;2023-02-28T14:46:53;9.80;88.50
33837;DHT22;20140;49.356;8.812;2023-02-28T14:49:35;9.90;88.40
33837;DHT22;20140;49.356;8.812;2023-02-28T14:52:26;10.40;85.50
33837;DHT22;20140;49.356;8.812;2023-02-28T14:57:23;9.70;84.80
33837;DHT22;20140;49.356;8.812;2023-02-28T15:00:01;10.10;84.50
33837;DHT22;20140;49.356;8.812;2023-02-28T15:02:33;9.60;85.60
33837;DHT22;20140;49.356;8.812;2023-02-28T15:07:34;9.90;87.10
33837;DHT22;20140;49.356;8.812;2023-02-28T15:12:55;8.70;88.60
33837;DHT22;20140;49.356;8.812;2023-02-28T15:15:22;8.30;89.10
33837;DHT22;20140;49.356;8.812;2023-02-28T15:17:53;7.40;90.10
33837;DHT22;20140;49.356;8.812;2023-02-28T15:20:20;8.50;90.50
33837;DHT22;20140;49.356;8.812;2023-02-28T15:22:49;9.10;87.10
33837;DHT22;20140;49.356;8.812;2023-02-28T15:25:20;9.40;86.60
33837;DHT22;20140;49.356;8.812;2023-02-28T15:27:52;9.00;87.00
33837;DHT22;20140;49.356;8.812;2023-02-28T15:30:21;9.40;88.00
33837;DHT22;20140;49.356;8.812;2023-02-28T15:35:36;9.30;87.80
33837;DHT22;20140;49.356;8.812;2023-02-28T15:38:16;9.40;86.50
33837;DHT22;20140;49.356;8.812;2023-02-28T15:40:45;8.30;88.30
33837;DHT22;20140;49.356;8.812;2023-02-28T15:43:18;8.00;89.60
33837;DHT22;20140;49.356;8.812;2023-02-28T15:46:12;8.50;90.30
33837;DHT22;20140;49.356;8.812;2023-02-28T15:48:51;8.50;89.20
33837;DHT22;20140;49.356;8.812;2023-02-28T15:51:35;8.00;89.90
33837;DHT22;20140;49.356;8.812;2023-02-28T15:54:11;8.40;89.90
33837;DHT22;20140;49.356;8.812;2023-02-28T15:56:51;8.50;88.90
33837;DHT22;20140;49.356;8.812;2023-02-28T15:59:23;7.80;90.30
33837;DHT22;20140;49.356;8.812;2023-02-28T16:04:35;8.10;90.20
33837;DHT22;20140;49.356;8.812;2023-02-28T16:07:03;8.20;90.30
33837;DHT22;20140;49.356;8.812;2023-02-28T16:09:28;7.80;89.80
33837;DHT22;20140;49.356;8.812;2023-02-28T16:11:59;7.80;90.10
33837;DHT22;20140;49.356;8.812;2023-02-28T16:14:28;7.60;90.90
33837;DHT22;20140;49.356;8.812;2023-02-28T16:17:05;7.50;91.60
33837;DHT22;20140;49.356;8.812;2023-02-28T16:19:31;7.70;91.70
33837;DHT22;20140;49.356;8.812;2023-02-28T16:21:57;7.90;90.90
33837;DHT22;20140;49.356;8.812;2023-02-28T16:24:22;7.80;90.90
33837;DHT22;20140;49.356;8.812;2023-02-28T16:26:49;7.70;90.90
33837;DHT22;20140;49.356;8.812;2023-02-28T16:29:36;7.60;90.90
33837;DHT22;20140;49.356;8.812;2023-02-28T16:32:04;7.30;91.10
33837;DHT22;20140;49.356;8.812;2023-02-28T16:34:30;7.40;92.30
33837;DHT22;20140;49.356;8.812;2023-02-28T16:36:56;7.30;91.80
33837;DHT22;20140;49.356;8.812;2023-02-28T16:39:21;7.10;91.50
33837;DHT22;20140;49.356;8.812;2023-02-28T16:41:47;6.70;92.40
33837;DHT22;20140;49.356;8.812;2023-02-28T16:44:24;7.00;92.70
33837;DHT22;20140;49.356;8.812;2023-02-28T16:46:51;7.00;93.10
33837;DHT22;20140;49.356;8.812;2023-02-28T16:49:17;6.90;93.00
33837;DHT22;20140;49.356;8.812;2023-02-28T16:51:42;6.70;93.00
33837;DHT22;20140;49.356;8.812;2023-02-28T16:54:08;6.60;93.40
33837;DHT22;20140;49.356;8.812;2023-02-28T16:56:34;6.20;93.60
33837;DHT22;20140;49.356;8.812;2023-02-28T16:59:01;6.10;94.20
33837;DHT22;20140;49.356;8.812;2023-02-28T17:01:27;5.80;94.60
33837;DHT22;20140;49.356;8.812;2023-02-28T17:03:53;5.70;95.40
33837;DHT22;20140;49.356;8.812;2023-02-28T17:06:27;5.50;95.50
33837;DHT22;20140;49.356;8.812;2023-02-28T17:08:59;5.00;96.50
33837;DHT22;20140;49.356;8.812;2023-02-28T17:11:25;4.90;96.80
33837;DHT22;20140;49.356;8.812;2023-02-28T17:13:51;4.80;97.80
33837;DHT22;20140;49.356;8.812;2023-02-28T17:16:25;4.70;98.30
33837;DHT22;20140;49.356;8.812;2023-02-28T17:18:54;4.70;98.40
33837;DHT22;20140;49.356;8.812;2023-02-28T17:21:20;4.60;98.90
33837;DHT22;20140;49.356;8.812;2023-02-28T17:23:45;4.60;98.70
33837;DHT22;20140;49.356;8.812;2023-02-28T17:26:15;4.50;99.00
33837;DHT22;20140;49.356;8.812;2023-02-28T17:28:43;4.40;99.90
33837;DHT22;20140;49.356;8.812;2023-02-28T17:31:09;4.30;99.90
33837;DHT22;20140;49.356;8.812;2023-02-28T17:33:34;4.30;99.90
33837;DHT22;20140;49.356;8.812;2023-02-28T17:36:00;4.20;99.90
33837;DHT22;20140;49.356;8.812;2023-02-28T17:38:25;4.20;99.90
33837;DHT22;20140;49.356;8.812;2023-02-28T17:40:51;4.10;99.90
33837;DHT22;20140;49.356;8.812;2023-02-28T17:43:25;4.00;99.90
33837;DHT22;20140;49.356;8.812;2023-02-28T17:45:51;4.00;99.90
33837;DHT22;20140;49.356;8.812;2023-02-28T17:48:17;3.90;99.90
33837;DHT22;20140;49.356;8.812;2023-02-28T17:50:42;3.90;99.90
33837;DHT22;20140;49.356;8.812;2023-02-28T17:53:08;3.90;99.90
33837;DHT22;20140;49.356;8.812;2023-02-28T17:55:33;3.80;99.90
33837;DHT22;20140;49.356;8.812;2023-02-28T17:57:59;3.80;99.90
33837;DHT22;20140;49.356;8.812;2023-02-28T18:00:25;3.80;99.90
33837;DHT22;20140;49.356;8.812;2023-02-28T18:02:51;3.80;99.90